createdAt,value
2022-10-18T00:00:58.432Z,0.82
2022-10-18T00:03:25.343Z,1.50
2022-10-18T00:05:52.550Z,1.00
2022-10-18T00:08:21.137Z,1.00
2022-10-18T00:10:48.650Z,0.63
2022-10-18T00:13:16.701Z,0.90
2022-10-18T00:15:49.419Z,0.95
2022-10-18T00:18:16.264Z,1.00
2022-10-18T00:20:42.964Z,0.80
2022-10-18T00:23:09.728Z,1.20
2022-10-18T00:25:38.337Z,1.02
2022-10-18T00:28:06.493Z,1.05
2022-10-18T00:30:33.418Z,1.33
2022-10-18T00:33:00.834Z,0.95
2022-10-18T00:35:27.764Z,0.98
2022-10-18T00:37:54.428Z,1.25
2022-10-18T00:40:21.637Z,1.63
2022-10-18T00:42:50.097Z,1.20
2022-10-18T00:45:20.835Z,1.08
2022-10-18T00:47:52.249Z,0.82
2022-10-18T00:50:21.448Z,0.95
2022-10-18T00:52:51.704Z,1.23
2022-10-18T00:55:19.066Z,0.77
2022-10-18T00:57:46.493Z,1.00
2022-10-18T01:00:15.184Z,0.80
2022-10-18T01:02:44.110Z,0.75
2022-10-18T01:05:12.241Z,1.55
2022-10-18T01:08:08.741Z,1.45
2022-10-18T01:10:42.801Z,1.20
2022-10-18T01:13:25.833Z,1.40
2022-10-18T01:16:00.556Z,1.33
2022-10-18T01:18:34.809Z,0.85
2022-10-18T01:21:18.066Z,0.73
2022-10-18T01:24:33.747Z,0.80
2022-10-18T01:27:36.549Z,0.60
2022-10-18T01:30:39.974Z,0.95
2022-10-18T01:33:15.534Z,1.48
2022-10-18T01:35:48.959Z,0.77
2022-10-18T01:38:18.909Z,1.55
2022-10-18T01:40:49.749Z,0.93
2022-10-18T01:43:18.575Z,0.90
2022-10-18T01:45:47.357Z,0.98
2022-10-18T01:48:14.665Z,1.13
2022-10-18T01:50:42.087Z,0.60
2022-10-18T01:53:22.210Z,0.70
2022-10-18T01:55:55.352Z,0.70
2022-10-18T01:58:29.553Z,1.42
2022-10-18T02:01:07.522Z,0.80
2022-10-18T02:03:37.919Z,0.70
2022-10-18T02:06:10.436Z,0.80
2022-10-18T02:08:42.884Z,0.90
2022-10-18T02:11:12.409Z,1.38
2022-10-18T02:13:41.995Z,0.80
2022-10-18T02:16:13.883Z,1.10
2022-10-18T02:18:44.481Z,0.90
2022-10-18T02:21:15.803Z,0.73
2022-10-18T02:23:46.133Z,1.38
2022-10-18T02:26:13.731Z,0.80
2022-10-18T02:28:41.038Z,1.45
2022-10-18T02:31:15.865Z,1.40
2022-10-18T02:33:47.050Z,1.08
2022-10-18T02:36:18.417Z,1.20
2022-10-18T02:38:46.544Z,1.10
2022-10-18T02:41:21.788Z,1.00
2022-10-18T02:43:48.491Z,1.00
2022-10-18T02:46:17.246Z,1.08
2022-10-18T02:48:44.000Z,1.17
2022-10-18T02:51:10.838Z,1.10
2022-10-18T02:53:37.512Z,1.10
2022-10-18T02:56:04.632Z,1.00
2022-10-18T02:58:31.328Z,1.15
2022-10-18T03:00:58.059Z,1.27
2022-10-18T03:03:26.238Z,1.45
2022-10-18T03:05:53.214Z,1.00
2022-10-18T03:08:20.011Z,2.13
2022-10-18T03:10:47.182Z,0.70
2022-10-18T03:13:14.180Z,1.23
2022-10-18T03:15:41.154Z,1.33
2022-10-18T03:18:07.899Z,0.68
2022-10-18T03:20:36.158Z,0.93
2022-10-18T03:23:03.418Z,0.80
2022-10-18T03:25:30.038Z,1.85
2022-10-18T03:27:56.744Z,1.45
2022-10-18T03:30:23.489Z,1.23
2022-10-18T03:32:50.635Z,0.70
2022-10-18T03:35:17.478Z,0.98
2022-10-18T03:37:45.794Z,0.73
2022-10-18T03:40:12.553Z,1.00
2022-10-18T03:42:39.224Z,1.00
2022-10-18T03:45:07.196Z,1.20
2022-10-18T03:47:34.047Z,1.27
2022-10-18T03:50:00.781Z,1.30
2022-10-18T03:52:27.496Z,1.10
2022-10-18T03:54:55.586Z,1.38
2022-10-18T03:57:22.287Z,1.15
2022-10-18T03:59:49.041Z,1.63
2022-10-18T04:02:15.944Z,1.50
2022-10-18T04:04:42.806Z,1.80
2022-10-18T04:07:09.749Z,1.27
2022-10-18T04:09:36.528Z,0.80
2022-10-18T04:12:05.220Z,1.13
2022-10-18T04:14:31.932Z,0.80
2022-10-18T04:16:58.641Z,1.40
2022-10-18T04:19:25.259Z,1.98
2022-10-18T04:21:52.012Z,1.35
2022-10-18T04:24:18.803Z,1.52
2022-10-18T04:26:45.677Z,1.40
2022-10-18T04:29:13.766Z,2.38
2022-10-18T04:31:40.531Z,3.25
2022-10-18T04:34:07.323Z,1.88
2022-10-18T04:36:34.027Z,2.00
2022-10-18T04:39:00.983Z,3.63
2022-10-18T04:41:27.719Z,1.08
2022-10-18T04:43:54.513Z,2.45
2022-10-18T04:46:22.624Z,1.80
2022-10-18T04:48:49.944Z,2.20
2022-10-18T04:51:16.671Z,2.30
2022-10-18T04:53:43.616Z,2.03
2022-10-18T04:56:10.335Z,2.17
2022-10-18T04:58:37.085Z,3.22
2022-10-18T05:01:05.211Z,2.88
2022-10-18T05:03:33.560Z,2.92
2022-10-18T05:06:03.720Z,2.22
2022-10-18T05:08:32.138Z,2.80
2022-10-18T05:10:59.357Z,2.40
2022-10-18T05:13:26.300Z,2.55
2022-10-18T05:15:53.033Z,2.13
2022-10-18T05:18:20.228Z,1.35
2022-10-18T05:20:48.423Z,2.10
2022-10-18T05:23:16.858Z,2.63
2022-10-18T05:25:56.744Z,2.20
2022-10-18T05:28:41.100Z,1.88
2022-10-18T05:31:11.757Z,2.35
2022-10-18T05:39:20.927Z,2.95
2022-10-18T05:52:31.042Z,1.65
2022-10-18T05:57:42.801Z,2.97
2022-10-18T06:00:12.812Z,2.30
2022-10-18T06:02:40.769Z,2.38
2022-10-18T06:05:08.460Z,1.98
2022-10-18T06:13:02.295Z,3.13
2022-10-18T06:18:11.626Z,3.00
2022-10-18T06:49:18.306Z,2.05
2022-10-18T06:52:07.738Z,2.75
2022-10-18T07:30:08.988Z,1.90
2022-10-18T07:32:36.194Z,1.48
2022-10-18T07:37:44.614Z,1.55
2022-10-18T07:43:05.016Z,1.70
2022-10-18T07:45:34.299Z,1.33
2022-10-18T08:22:38.867Z,1.42
2022-10-18T08:25:07.144Z,0.88
2022-10-18T08:30:58.530Z,0.93
2022-10-18T08:39:05.450Z,1.10
2022-10-18T09:37:18.760Z,0.70
2022-10-18T11:11:19.356Z,0.93
2022-10-18T11:48:27.008Z,1.45
2022-10-18T11:53:52.429Z,1.00
2022-10-18T11:56:37.653Z,1.25
2022-10-18T11:59:19.352Z,1.20
2022-10-18T12:02:22.219Z,1.48
2022-10-18T12:05:22.027Z,0.90
2022-10-18T12:07:52.224Z,0.80
2022-10-18T12:10:31.573Z,1.88
2022-10-18T12:13:20.864Z,1.40
2022-10-18T12:15:52.369Z,1.15
2022-10-18T12:21:08.225Z,1.10
2022-10-18T12:33:27.773Z,1.42
2022-10-18T12:36:16.823Z,1.27
2022-10-18T12:38:55.609Z,1.15
2022-10-18T12:41:35.457Z,1.25
2022-10-18T12:46:50.355Z,1.20
2022-10-18T12:52:28.262Z,1.38
2022-10-18T12:55:06.535Z,1.30
2022-10-18T12:58:04.188Z,1.13
2022-10-18T13:00:53.062Z,1.13
2022-10-18T13:06:06.801Z,1.15
2022-10-18T13:08:50.957Z,1.02
2022-10-18T13:14:59.191Z,1.35
2022-10-18T13:17:40.041Z,1.25
2022-10-18T13:20:27.237Z,1.35
2022-10-18T13:23:12.136Z,1.25
2022-10-18T13:26:02.727Z,0.95
2022-10-18T13:46:21.955Z,1.38
2022-10-18T13:48:53.026Z,1.17
2022-10-18T13:55:08.991Z,0.90
2022-10-18T13:57:52.472Z,0.80
2022-10-18T14:00:37.006Z,1.10
2022-10-18T14:03:56.969Z,1.00
2022-10-18T14:06:28.400Z,1.40
2022-10-18T14:09:09.384Z,1.00
2022-10-18T14:11:50.729Z,0.80
2022-10-18T14:14:28.075Z,0.82
2022-10-18T16:13:59.565Z,3.10
2022-10-18T16:16:29.254Z,4.60
2022-10-18T16:18:57.102Z,3.70
2022-10-18T16:21:27.974Z,3.13
2022-10-18T16:23:55.145Z,1.98
2022-10-18T16:26:27.218Z,3.50
2022-10-18T16:28:57.634Z,3.20
2022-10-18T16:31:28.268Z,2.20
2022-10-18T18:57:06.897Z,3.50
2022-10-18T19:02:26.683Z,2.03
2022-10-18T19:04:53.748Z,2.47
2022-10-18T19:07:25.397Z,2.92
2022-10-18T19:09:52.470Z,2.42
2022-10-18T19:12:21.375Z,1.88
2022-10-18T19:14:48.418Z,2.42
2022-10-18T19:17:15.577Z,2.15
2022-10-18T19:19:43.339Z,1.75
2022-10-18T19:22:11.120Z,2.47
2022-10-18T19:24:41.216Z,2.25
2022-10-18T19:27:12.677Z,1.77
2022-10-18T19:29:40.908Z,2.38
2022-10-18T19:37:41.402Z,3.22
2022-10-18T19:40:10.515Z,2.50
2022-10-18T19:42:37.784Z,2.10
2022-10-18T19:45:05.778Z,2.35
2022-10-18T19:47:33.280Z,2.72
2022-10-18T19:50:00.294Z,2.28
2022-10-18T19:52:28.362Z,2.47
2022-10-18T19:54:55.254Z,1.70
2022-10-18T19:57:23.913Z,1.80
2022-10-18T19:59:50.799Z,2.40
2022-10-18T20:02:17.663Z,2.20
2022-10-18T20:04:44.593Z,1.67
2022-10-18T20:07:12.345Z,1.70
2022-10-18T20:09:40.035Z,2.00
2022-10-18T20:12:07.022Z,2.30
2022-10-18T20:14:35.367Z,1.90
2022-10-18T20:17:02.195Z,1.90
2022-10-18T20:19:28.911Z,2.13
2022-10-18T20:21:56.394Z,2.28
2022-10-18T20:24:23.155Z,2.15
2022-10-18T20:26:50.080Z,2.35
2022-10-18T20:29:17.168Z,2.10
2022-10-18T20:31:47.987Z,2.17
2022-10-18T20:34:14.791Z,2.10
2022-10-18T20:36:41.695Z,2.20
2022-10-18T20:39:09.113Z,2.78
2022-10-18T20:41:38.012Z,2.53
2022-10-18T20:44:11.044Z,2.70
2022-10-18T20:46:38.746Z,2.75
2022-10-18T20:49:08.710Z,3.15
2022-10-18T20:51:35.894Z,2.88
2022-10-18T20:56:34.286Z,2.50
2022-10-18T20:59:01.440Z,2.38
2022-10-18T21:01:30.684Z,2.90
2022-10-18T21:03:59.777Z,2.78
2022-10-18T21:06:29.802Z,3.10
2022-10-18T21:08:58.069Z,1.80
2022-10-18T21:11:25.938Z,2.67
2022-10-18T21:13:54.396Z,1.80
2022-10-18T21:16:21.944Z,2.53
2022-10-18T21:18:49.176Z,2.00
2022-10-18T21:21:17.981Z,2.00
2022-10-18T21:23:46.654Z,2.28
2022-10-18T21:26:15.683Z,1.73
2022-10-18T21:28:42.506Z,1.65
